Terminal Aerodrome Forecast
Issued by NWS Portland, OR

Home | Current Version | Previous Version | Text Only | Print | Product List | Glossary On
Versions: 1 2 3 4 5 6 7 8 9 10 11 12 13 14 15
000
FTUS46 KPQR 250533
TAFHIO
TAF
KHIO 250533Z 2506/2606 20004KT P6SM -SHRA SCT030 BKN045 OVC070
     FM251000 18003KT P6SM BKN022 OVC035
     FM251600 VRB03KT P6SM -SHRA SCT022 BKN035 OVC045
     FM252000 20006KT P6SM VCSH SCT030 BKN060
     FM260200 VRB03KT P6SM SCT050 BKN100=

USA.gov is the U.S. government's official web portal to all federal, state and local government web resources and services.